PPR Request

Prior permission is required for operations at the Malmi Airport. Make a prior permission request here

Traffic Circuit Slot

Make your PPR request first, then the TC slot reservation. Price 10 € / 20 minute slot.

Aerodrome Info

Updated 14 MAR 2021 22:06 LT

  • ALL Runways closed. See notam for details

Contact duty officer at +358 20 7545 129 for more information.

Remember to close your flight plan: ACC tel. +358 3 386 5172.

Weather


Helsinki Malmi lentokenttä
AWS ILHF 210010Z AUTO 14005KT CAVOK 21/16 Q1013=



Helsinki-Malmin lentoasema

Welcome to Helsinki-Malmi Airport

Helsinki-Malmi is the busiest general aviation airport in Finland, operated by Malmi Airfield Association.

Behind the association are organizations, companies and persons operating at the Malmi Airport.

The Association’s work is funded by membership fees and season card fees. The Association needs both full members and supporting members to finance its activity.

Be involved in continuing Malmi’s aviation activities and join as a member!